Etusivu
METAR-TAF:

METAR-TAF

Lentoasemat :

Ljungbyhed, Ruotsi

Leveyspiiri: 56-04N, Pituuspiiri: 013-12E, korkeus merenpinnasta: 43 m

Tämänhetkinen sää

Tämä raportti tehtiin 1 tunti ja 30 minuuttia sitten, kello 19.50 UTC
Tuuli 6 kn kaakosta
Lämpötila 10°C
Kosteus 66%
Ilmanpaine 1011 hPa
Näkyvyys 10 km tai enemmän

METAR: ESTL 241950Z AUTO 13006KT 9999 NCD 10/04 Q1011

Aika: 23:20 (21:20 UTC)

Sääennuste

Tämä raportti tehtiin 10 tuntia ja 9 minuuttia sitten, kello 11.11 UTC
Ennuste voimassa 24. päivästä klo 12 UTC - 24. päivään klo 15 UTC
Tuuli 15 kn idästä/kaakosta
Näkyvyys 10 km tai enemmän
Muutamia pilviä 4000 ft:n korkeudessa
Ajoittain
24. päivästä klo 12 UTC - 24. päivään klo 14 UTC
Tuuli 18 kn idästä/kaakosta puuskistuen 28 kn:hen

TAF: ESTL 241111Z 2412/2415 11015KT 9999 FEW040 TEMPO 2412/2414 12018G28KT

Säähavainnot ja -ennusteet yli 4000 lentoasemalta (METAR- ja TAF-raportit).

Käytössä olevat sääasemat on merkitty karttaan keltaisilla ja punaisilla pisteillä.

Aseta hiiri pisteen päälle nähdäksesi sääaseman nimen.

Klikkaa sitten nähdäksesi säähavainnot ja -ennusteet.

Kartan vaihtaminen: klikkaa mustalla rastilla varustettuja vihreitä pisteitä, niin voit zoomata sisään; viivalla varustettua vihreää pistettä, niin voit zoomata ulos tai vihreitä nuolia, niin pääset viereisille kartoille.


METAR-TAF: